Main page
METAR-TAF:

METAR-TAF

Airports :

Çorlu, Turkey

Tekirdağ Çorlu Airport

latitude: 41-08N, longitude: 027-55E, elevation: 173 m

Current weather observation

The report was made 33 minutes ago, at 21:20 UTC
Wind 2 kt from variable directions
Temperature 13°C
Humidity 62%
Pressure 1015 hPa
Visibility 10 km or more
no clouds below 1500 m and no cumulonimbus

METAR: LTBU 282120Z VRB02KT CAVOK 13/06 Q1015 RMK RWY23 21003KT

Time: 00:53 (21:53 UTC)

Forecast

The report was made 5 hours and 13 minutes ago, at 16:40 UTC
Forecast valid from 28 at 18 UTC to 29 at 18 UTC
Wind 2 kt from variable directions
Visibility 10 km or more
no clouds below 1500 m and no cumulonimbus

TAF: LTBU 281640Z 2818/2918 VRB02KT CAVOK

Weather observations and forecasts of more than 4000 airports (METAR and TAF reports).

The available stations are represented by yellow and red dots on the map.

Hover mouse over dot to see the name of the station.

Then click to see weather observations and forecasts.

To change the map : click on the green buttons with a black cross to zoom in, on the green button with a dash to zoom out, or on the green arrows for adjacent maps.


METAR-TAF: